sensor_id;sensor_type;location;lat;lon;timestamp;temperature;humidity
4922;DHT22;16625;53.624;10.106;2023-12-20T00:02:12;4.50;99.90
4922;DHT22;16625;53.624;10.106;2023-12-20T00:04:39;5.30;99.90
4922;DHT22;16625;53.624;10.106;2023-12-20T00:07:07;4.50;99.90
4922;DHT22;16625;53.624;10.106;2023-12-20T00:09:34;4.40;99.90
4922;DHT22;16625;53.624;10.106;2023-12-20T00:12:00;4.30;99.90
4922;DHT22;16625;53.624;10.106;2023-12-20T00:14:27;4.90;99.90
4922;DHT22;16625;53.624;10.106;2023-12-20T00:16:54;4.30;99.90
4922;DHT22;16625;53.624;10.106;2023-12-20T00:19:21;5.00;99.90
4922;DHT22;16625;53.624;10.106;2023-12-20T00:21:48;4.30;99.90
4922;DHT22;16625;53.624;10.106;2023-12-20T00:24:17;4.20;99.90
4922;DHT22;16625;53.624;10.106;2023-12-20T00:26:43;5.20;99.90
4922;DHT22;16625;53.624;10.106;2023-12-20T00:29:10;4.90;99.90
4922;DHT22;16625;53.624;10.106;2023-12-20T00:31:37;4.10;99.90
4922;DHT22;16625;53.624;10.106;2023-12-20T00:34:04;4.30;99.90
4922;DHT22;16625;53.624;10.106;2023-12-20T00:36:31;4.30;99.90
4922;DHT22;16625;53.624;10.106;2023-12-20T00:38:58;4.40;99.90
4922;DHT22;16625;53.624;10.106;2023-12-20T00:41:26;4.40;99.90
4922;DHT22;16625;53.624;10.106;2023-12-20T00:43:53;4.50;99.90
4922;DHT22;16625;53.624;10.106;2023-12-20T00:46:20;4.50;99.90
4922;DHT22;16625;53.624;10.106;2023-12-20T00:48:47;4.60;99.90
4922;DHT22;16625;53.624;10.106;2023-12-20T00:51:13;4.60;99.90
4922;DHT22;16625;53.624;10.106;2023-12-20T00:53:40;4.70;99.90
4922;DHT22;16625;53.624;10.106;2023-12-20T00:56:08;4.70;99.90
4922;DHT22;16625;53.624;10.106;2023-12-20T00:58:37;4.80;99.90
4922;DHT22;16625;53.624;10.106;2023-12-20T01:01:03;4.90;99.90
4922;DHT22;16625;53.624;10.106;2023-12-20T01:03:30;5.70;99.90
4922;DHT22;16625;53.624;10.106;2023-12-20T01:05:57;4.90;99.90
4922;DHT22;16625;53.624;10.106;2023-12-20T01:08:24;4.90;99.90
4922;DHT22;16625;53.624;10.106;2023-12-20T01:10:52;6.20;99.90
4922;DHT22;16625;53.624;10.106;2023-12-20T01:13:19;4.90;99.90
4922;DHT22;16625;53.624;10.106;2023-12-20T01:15:47;4.80;99.90
4922;DHT22;16625;53.624;10.106;2023-12-20T01:18:14;4.80;99.90
4922;DHT22;16625;53.624;10.106;2023-12-20T01:20:41;4.80;99.90
4922;DHT22;16625;53.624;10.106;2023-12-20T01:23:08;4.70;99.90
4922;DHT22;16625;53.624;10.106;2023-12-20T01:25:35;4.60;99.90
4922;DHT22;16625;53.624;10.106;2023-12-20T01:28:02;4.80;99.90
4922;DHT22;16625;53.624;10.106;2023-12-20T01:30:29;4.50;99.90
4922;DHT22;16625;53.624;10.106;2023-12-20T01:32:59;4.40;99.90
4922;DHT22;16625;53.624;10.106;2023-12-20T01:35:26;4.30;99.90
4922;DHT22;16625;53.624;10.106;2023-12-20T01:37:53;4.30;99.90
4922;DHT22;16625;53.624;10.106;2023-12-20T01:40:22;4.30;99.90
4922;DHT22;16625;53.624;10.106;2023-12-20T01:42:58;4.30;99.90
4922;DHT22;16625;53.624;10.106;2023-12-20T01:45:25;4.20;99.90
4922;DHT22;16625;53.624;10.106;2023-12-20T01:47:52;4.20;99.90
4922;DHT22;16625;53.624;10.106;2023-12-20T01:50:21;4.20;99.90
4922;DHT22;16625;53.624;10.106;2023-12-20T01:52:48;4.30;99.90
4922;DHT22;16625;53.624;10.106;2023-12-20T01:55:17;4.40;99.90
4922;DHT22;16625;53.624;10.106;2023-12-20T01:57:45;4.50;99.90
4922;DHT22;16625;53.624;10.106;2023-12-20T02:00:13;4.60;99.90
4922;DHT22;16625;53.624;10.106;2023-12-20T02:02:41;4.60;99.90
4922;DHT22;16625;53.624;10.106;2023-12-20T02:05:10;4.70;99.90
4922;DHT22;16625;53.624;10.106;2023-12-20T02:07:38;4.70;99.90
4922;DHT22;16625;53.624;10.106;2023-12-20T02:10:06;4.80;99.90
4922;DHT22;16625;53.624;10.106;2023-12-20T02:12:33;4.70;99.90
4922;DHT22;16625;53.624;10.106;2023-12-20T02:15:01;4.70;99.90
4922;DHT22;16625;53.624;10.106;2023-12-20T02:17:28;4.70;99.90
4922;DHT22;16625;53.624;10.106;2023-12-20T02:19:56;5.70;99.90
4922;DHT22;16625;53.624;10.106;2023-12-20T02:22:24;4.70;99.90
4922;DHT22;16625;53.624;10.106;2023-12-20T02:24:51;4.70;99.90
4922;DHT22;16625;53.624;10.106;2023-12-20T02:27:20;4.80;99.90
4922;DHT22;16625;53.624;10.106;2023-12-20T02:29:47;5.90;99.90
4922;DHT22;16625;53.624;10.106;2023-12-20T02:32:14;4.80;99.90
4922;DHT22;16625;53.624;10.106;2023-12-20T02:34:42;4.80;99.90
4922;DHT22;16625;53.624;10.106;2023-12-20T02:37:09;4.80;99.90
4922;DHT22;16625;53.624;10.106;2023-12-20T02:39:37;4.90;99.90
4922;DHT22;16625;53.624;10.106;2023-12-20T02:42:04;5.70;99.90
4922;DHT22;16625;53.624;10.106;2023-12-20T02:44:31;5.00;99.90
4922;DHT22;16625;53.624;10.106;2023-12-20T02:46:58;5.00;99.90
4922;DHT22;16625;53.624;10.106;2023-12-20T02:49:24;5.00;99.90
4922;DHT22;16625;53.624;10.106;2023-12-20T02:51:51;5.00;99.90
4922;DHT22;16625;53.624;10.106;2023-12-20T02:54:18;5.00;99.90
4922;DHT22;16625;53.624;10.106;2023-12-20T02:56:46;5.00;99.90
4922;DHT22;16625;53.624;10.106;2023-12-20T02:59:13;5.00;99.90
4922;DHT22;16625;53.624;10.106;2023-12-20T03:01:42;5.00;99.90
4922;DHT22;16625;53.624;10.106;2023-12-20T03:04:09;5.70;99.90
4922;DHT22;16625;53.624;10.106;2023-12-20T03:06:36;5.10;99.90
4922;DHT22;16625;53.624;10.106;2023-12-20T03:09:03;5.10;99.90
4922;DHT22;16625;53.624;10.106;2023-12-20T03:11:30;5.10;99.90
4922;DHT22;16625;53.624;10.106;2023-12-20T03:13:58;5.90;99.90
4922;DHT22;16625;53.624;10.106;2023-12-20T03:16:25;5.10;99.90
4922;DHT22;16625;53.624;10.106;2023-12-20T03:18:52;5.10;99.90
4922;DHT22;16625;53.624;10.106;2023-12-20T03:21:19;5.10;99.90
4922;DHT22;16625;53.624;10.106;2023-12-20T03:23:46;5.10;99.90
4922;DHT22;16625;53.624;10.106;2023-12-20T03:26:12;5.90;99.90
4922;DHT22;16625;53.624;10.106;2023-12-20T03:28:39;5.10;99.90
4922;DHT22;16625;53.624;10.106;2023-12-20T03:31:09;5.40;99.90
4922;DHT22;16625;53.624;10.106;2023-12-20T03:33:36;5.50;99.90
4922;DHT22;16625;53.624;10.106;2023-12-20T03:36:03;5.60;99.90
4922;DHT22;16625;53.624;10.106;2023-12-20T03:38:30;5.20;99.90
4922;DHT22;16625;53.624;10.106;2023-12-20T03:40:57;5.40;99.90
4922;DHT22;16625;53.624;10.106;2023-12-20T03:43:24;5.70;99.90
4922;DHT22;16625;53.624;10.106;2023-12-20T03:45:51;5.20;99.90
4922;DHT22;16625;53.624;10.106;2023-12-20T03:48:19;6.40;99.90
4922;DHT22;16625;53.624;10.106;2023-12-20T03:50:46;5.20;99.90
4922;DHT22;16625;53.624;10.106;2023-12-20T03:53:13;5.20;99.90
4922;DHT22;16625;53.624;10.106;2023-12-20T03:55:40;5.70;99.90
4922;DHT22;16625;53.624;10.106;2023-12-20T03:58:07;5.20;99.90
4922;DHT22;16625;53.624;10.106;2023-12-20T04:00:34;5.40;99.90
4922;DHT22;16625;53.624;10.106;2023-12-20T04:03:00;5.20;99.90
4922;DHT22;16625;53.624;10.106;2023-12-20T04:05:29;6.40;99.90
4922;DHT22;16625;53.624;10.106;2023-12-20T04:07:56;5.30;99.90
4922;DHT22;16625;53.624;10.106;2023-12-20T04:10:23;5.20;99.90
4922;DHT22;16625;53.624;10.106;2023-12-20T04:12:50;5.20;99.90
4922;DHT22;16625;53.624;10.106;2023-12-20T04:15:16;5.20;99.90
4922;DHT22;16625;53.624;10.106;2023-12-20T04:17:43;5.20;99.90
4922;DHT22;16625;53.624;10.106;2023-12-20T04:20:10;5.20;99.90
4922;DHT22;16625;53.624;10.106;2023-12-20T04:22:39;5.90;99.90
4922;DHT22;16625;53.624;10.106;2023-12-20T04:25:06;6.30;99.90
4922;DHT22;16625;53.624;10.106;2023-12-20T04:27:33;5.20;99.90
4922;DHT22;16625;53.624;10.106;2023-12-20T04:30:00;5.20;99.90
4922;DHT22;16625;53.624;10.106;2023-12-20T04:32:27;5.20;99.90
4922;DHT22;16625;53.624;10.106;2023-12-20T04:34:53;5.20;99.90
4922;DHT22;16625;53.624;10.106;2023-12-20T04:37:20;5.20;99.90
4922;DHT22;16625;53.624;10.106;2023-12-20T04:39:49;5.10;99.90
4922;DHT22;16625;53.624;10.106;2023-12-20T04:42:16;5.20;99.90
4922;DHT22;16625;53.624;10.106;2023-12-20T04:44:43;5.20;99.90
4922;DHT22;16625;53.624;10.106;2023-12-20T04:47:10;5.90;99.90
4922;DHT22;16625;53.624;10.106;2023-12-20T04:49:37;6.10;99.90
4922;DHT22;16625;53.624;10.106;2023-12-20T04:52:04;5.90;99.90
4922;DHT22;16625;53.624;10.106;2023-12-20T04:54:31;5.30;99.90
4922;DHT22;16625;53.624;10.106;2023-12-20T04:56:59;5.20;99.90
4922;DHT22;16625;53.624;10.106;2023-12-20T04:59:26;5.10;99.90
4922;DHT22;16625;53.624;10.106;2023-12-20T05:01:53;5.10;99.90
4922;DHT22;16625;53.624;10.106;2023-12-20T05:04:20;5.10;99.90
4922;DHT22;16625;53.624;10.106;2023-12-20T05:06:47;5.20;99.90
4922;DHT22;16625;53.624;10.106;2023-12-20T05:09:15;5.50;99.90
4922;DHT22;16625;53.624;10.106;2023-12-20T05:11:42;5.50;99.90
4922;DHT22;16625;53.624;10.106;2023-12-20T05:14:10;5.20;99.90
4922;DHT22;16625;53.624;10.106;2023-12-20T05:16:37;5.30;99.90
4922;DHT22;16625;53.624;10.106;2023-12-20T05:19:04;6.40;99.90
4922;DHT22;16625;53.624;10.106;2023-12-20T05:21:32;6.10;99.90
4922;DHT22;16625;53.624;10.106;2023-12-20T05:23:59;5.90;99.90
4922;DHT22;16625;53.624;10.106;2023-12-20T05:26:26;6.10;99.90
4922;DHT22;16625;53.624;10.106;2023-12-20T05:28:55;5.80;99.90
4922;DHT22;16625;53.624;10.106;2023-12-20T05:31:23;5.50;99.90
4922;DHT22;16625;53.624;10.106;2023-12-20T05:33:50;5.50;99.90
4922;DHT22;16625;53.624;10.106;2023-12-20T05:36:17;6.10;99.90
4922;DHT22;16625;53.624;10.106;2023-12-20T05:38:44;5.60;99.90
4922;DHT22;16625;53.624;10.106;2023-12-20T05:41:11;5.60;99.90
4922;DHT22;16625;53.624;10.106;2023-12-20T05:43:39;6.10;99.90
4922;DHT22;16625;53.624;10.106;2023-12-20T05:46:06;5.90;99.90
4922;DHT22;16625;53.624;10.106;2023-12-20T05:48:34;5.60;99.90
4922;DHT22;16625;53.624;10.106;2023-12-20T05:51:01;5.70;99.90
4922;DHT22;16625;53.624;10.106;2023-12-20T05:53:28;5.60;99.90
4922;DHT22;16625;53.624;10.106;2023-12-20T05:55:55;5.50;99.90
4922;DHT22;16625;53.624;10.106;2023-12-20T05:58:22;5.50;99.90
4922;DHT22;16625;53.624;10.106;2023-12-20T06:00:49;5.50;99.90
4922;DHT22;16625;53.624;10.106;2023-12-20T06:03:16;6.30;99.90
4922;DHT22;16625;53.624;10.106;2023-12-20T06:05:44;5.50;99.90
4922;DHT22;16625;53.624;10.106;2023-12-20T06:08:11;5.50;99.90
4922;DHT22;16625;53.624;10.106;2023-12-20T06:10:38;5.50;99.90
4922;DHT22;16625;53.624;10.106;2023-12-20T06:13:05;5.50;99.90
4922;DHT22;16625;53.624;10.106;2023-12-20T06:15:33;5.50;99.90
4922;DHT22;16625;53.624;10.106;2023-12-20T06:18:01;5.50;99.90
4922;DHT22;16625;53.624;10.106;2023-12-20T06:20:27;5.90;99.90
4922;DHT22;16625;53.624;10.106;2023-12-20T06:22:56;5.50;99.90
4922;DHT22;16625;53.624;10.106;2023-12-20T06:25:22;5.50;99.90
4922;DHT22;16625;53.624;10.106;2023-12-20T06:27:49;5.80;99.90
4922;DHT22;16625;53.624;10.106;2023-12-20T06:30:16;5.60;99.90
4922;DHT22;16625;53.624;10.106;2023-12-20T06:32:44;5.60;99.90
4922;DHT22;16625;53.624;10.106;2023-12-20T06:35:12;5.60;99.90
4922;DHT22;16625;53.624;10.106;2023-12-20T06:37:39;6.00;99.90
4922;DHT22;16625;53.624;10.106;2023-12-20T06:40:10;5.60;99.90
4922;DHT22;16625;53.624;10.106;2023-12-20T06:42:37;5.60;99.90
4922;DHT22;16625;53.624;10.106;2023-12-20T06:45:05;5.50;99.90
4922;DHT22;16625;53.624;10.106;2023-12-20T06:47:32;5.60;99.90
4922;DHT22;16625;53.624;10.106;2023-12-20T06:49:59;5.60;99.90
4922;DHT22;16625;53.624;10.106;2023-12-20T06:52:26;5.50;99.90
4922;DHT22;16625;53.624;10.106;2023-12-20T06:54:53;5.90;99.90
4922;DHT22;16625;53.624;10.106;2023-12-20T06:57:21;6.20;99.90
4922;DHT22;16625;53.624;10.106;2023-12-20T06:59:49;6.10;99.90
4922;DHT22;16625;53.624;10.106;2023-12-20T07:02:17;5.70;99.90
4922;DHT22;16625;53.624;10.106;2023-12-20T07:04:46;6.40;99.90
4922;DHT22;16625;53.624;10.106;2023-12-20T07:07:13;6.20;99.90
4922;DHT22;16625;53.624;10.106;2023-12-20T07:09:40;6.40;99.90
4922;DHT22;16625;53.624;10.106;2023-12-20T07:12:08;6.30;99.90
4922;DHT22;16625;53.624;10.106;2023-12-20T07:14:36;5.90;99.90
4922;DHT22;16625;53.624;10.106;2023-12-20T07:17:03;5.70;99.90
4922;DHT22;16625;53.624;10.106;2023-12-20T07:19:30;5.60;99.90
4922;DHT22;16625;53.624;10.106;2023-12-20T07:21:58;5.60;99.90
4922;DHT22;16625;53.624;10.106;2023-12-20T07:24:24;6.30;99.90
4922;DHT22;16625;53.624;10.106;2023-12-20T07:26:51;5.70;99.90
4922;DHT22;16625;53.624;10.106;2023-12-20T07:29:18;5.70;99.90
4922;DHT22;16625;53.624;10.106;2023-12-20T07:31:46;5.90;99.90
4922;DHT22;16625;53.624;10.106;2023-12-20T07:34:13;6.20;99.90
4922;DHT22;16625;53.624;10.106;2023-12-20T07:36:40;5.70;99.90
4922;DHT22;16625;53.624;10.106;2023-12-20T07:39:07;6.50;99.90
4922;DHT22;16625;53.624;10.106;2023-12-20T07:41:34;5.70;99.90
4922;DHT22;16625;53.624;10.106;2023-12-20T07:44:01;6.10;99.90
4922;DHT22;16625;53.624;10.106;2023-12-20T07:46:28;5.80;99.90
4922;DHT22;16625;53.624;10.106;2023-12-20T07:48:56;6.40;99.90
4922;DHT22;16625;53.624;10.106;2023-12-20T07:51:23;6.10;99.90
4922;DHT22;16625;53.624;10.106;2023-12-20T07:53:51;5.80;99.90
4922;DHT22;16625;53.624;10.106;2023-12-20T07:56:19;5.80;99.90
4922;DHT22;16625;53.624;10.106;2023-12-20T07:58:46;5.80;99.90
4922;DHT22;16625;53.624;10.106;2023-12-20T08:01:15;5.80;99.90
4922;DHT22;16625;53.624;10.106;2023-12-20T08:03:42;6.70;99.90
4922;DHT22;16625;53.624;10.106;2023-12-20T08:06:10;5.80;99.90
4922;DHT22;16625;53.624;10.106;2023-12-20T08:08:37;6.80;99.90
4922;DHT22;16625;53.624;10.106;2023-12-20T08:11:04;6.50;99.90
4922;DHT22;16625;53.624;10.106;2023-12-20T08:13:31;6.60;99.90
4922;DHT22;16625;53.624;10.106;2023-12-20T08:15:58;5.90;99.90
4922;DHT22;16625;53.624;10.106;2023-12-20T08:18:25;5.90;99.90
4922;DHT22;16625;53.624;10.106;2023-12-20T08:20:52;5.90;99.90
4922;DHT22;16625;53.624;10.106;2023-12-20T08:23:21;6.00;99.90
4922;DHT22;16625;53.624;10.106;2023-12-20T08:25:48;6.20;99.90
4922;DHT22;16625;53.624;10.106;2023-12-20T08:28:15;6.20;99.90
4922;DHT22;16625;53.624;10.106;2023-12-20T08:30:42;6.00;99.90
4922;DHT22;16625;53.624;10.106;2023-12-20T08:33:09;6.00;99.90
4922;DHT22;16625;53.624;10.106;2023-12-20T08:35:38;6.10;99.90
4922;DHT22;16625;53.624;10.106;2023-12-20T08:38:05;6.00;99.90
4922;DHT22;16625;53.624;10.106;2023-12-20T08:40:33;6.00;99.90
4922;DHT22;16625;53.624;10.106;2023-12-20T08:43:01;6.10;99.90
4922;DHT22;16625;53.624;10.106;2023-12-20T08:45:28;6.90;99.90
4922;DHT22;16625;53.624;10.106;2023-12-20T08:47:54;7.00;99.90
4922;DHT22;16625;53.624;10.106;2023-12-20T08:50:21;6.30;99.90
4922;DHT22;16625;53.624;10.106;2023-12-20T08:52:48;7.00;99.90
4922;DHT22;16625;53.624;10.106;2023-12-20T08:55:15;6.60;99.90
4922;DHT22;16625;53.624;10.106;2023-12-20T08:57:45;6.70;99.90
4922;DHT22;16625;53.624;10.106;2023-12-20T09:00:13;6.60;99.90
4922;DHT22;16625;53.624;10.106;2023-12-20T09:02:40;6.50;99.90
4922;DHT22;16625;53.624;10.106;2023-12-20T09:05:08;7.50;99.90
4922;DHT22;16625;53.624;10.106;2023-12-20T09:07:35;7.20;99.90
4922;DHT22;16625;53.624;10.106;2023-12-20T09:10:02;6.30;99.90
4922;DHT22;16625;53.624;10.106;2023-12-20T09:12:29;6.30;99.90
4922;DHT22;16625;53.624;10.106;2023-12-20T09:14:57;6.60;99.90
4922;DHT22;16625;53.624;10.106;2023-12-20T09:17:24;6.20;99.90
4922;DHT22;16625;53.624;10.106;2023-12-20T09:19:51;6.10;99.90
4922;DHT22;16625;53.624;10.106;2023-12-20T09:22:19;6.10;99.90
4922;DHT22;16625;53.624;10.106;2023-12-20T09:24:46;6.10;99.90
4922;DHT22;16625;53.624;10.106;2023-12-20T09:27:13;6.00;99.90
4922;DHT22;16625;53.624;10.106;2023-12-20T09:29:40;6.00;99.90
4922;DHT22;16625;53.624;10.106;2023-12-20T09:32:09;7.20;99.90
4922;DHT22;16625;53.624;10.106;2023-12-20T09:34:36;6.10;99.90
4922;DHT22;16625;53.624;10.106;2023-12-20T09:37:03;5.80;99.90
4922;DHT22;16625;53.624;10.106;2023-12-20T09:39:31;5.80;99.90
4922;DHT22;16625;53.624;10.106;2023-12-20T09:42:01;5.80;99.90
4922;DHT22;16625;53.624;10.106;2023-12-20T09:44:28;5.80;99.90
4922;DHT22;16625;53.624;10.106;2023-12-20T09:46:56;5.80;99.90
4922;DHT22;16625;53.624;10.106;2023-12-20T09:49:27;5.90;99.90
4922;DHT22;16625;53.624;10.106;2023-12-20T09:51:54;6.00;99.90
4922;DHT22;16625;53.624;10.106;2023-12-20T09:54:22;6.00;99.90
4922;DHT22;16625;53.624;10.106;2023-12-20T09:56:50;6.20;99.90
4922;DHT22;16625;53.624;10.106;2023-12-20T09:59:17;5.90;99.90
4922;DHT22;16625;53.624;10.106;2023-12-20T10:01:44;5.80;99.90
4922;DHT22;16625;53.624;10.106;2023-12-20T10:04:12;5.70;99.90
4922;DHT22;16625;53.624;10.106;2023-12-20T10:06:42;6.50;99.90
4922;DHT22;16625;53.624;10.106;2023-12-20T10:09:10;5.70;99.90
4922;DHT22;16625;53.624;10.106;2023-12-20T10:11:38;6.50;99.90
4922;DHT22;16625;53.624;10.106;2023-12-20T10:14:05;5.60;99.90
4922;DHT22;16625;53.624;10.106;2023-12-20T10:16:33;5.80;99.90
4922;DHT22;16625;53.624;10.106;2023-12-20T10:19:01;6.00;99.90
4922;DHT22;16625;53.624;10.106;2023-12-20T10:21:28;5.90;99.90
4922;DHT22;16625;53.624;10.106;2023-12-20T10:23:57;6.10;99.90
4922;DHT22;16625;53.624;10.106;2023-12-20T10:26:25;5.50;99.90
4922;DHT22;16625;53.624;10.106;2023-12-20T10:28:54;5.50;99.90
4922;DHT22;16625;53.624;10.106;2023-12-20T10:31:29;5.50;99.90
4922;DHT22;16625;53.624;10.106;2023-12-20T10:33:57;5.50;99.90
4922;DHT22;16625;53.624;10.106;2023-12-20T10:36:25;5.60;99.90
4922;DHT22;16625;53.624;10.106;2023-12-20T10:38:53;5.50;99.90
4922;DHT22;16625;53.624;10.106;2023-12-20T10:41:25;5.50;99.90
4922;DHT22;16625;53.624;10.106;2023-12-20T10:43:55;5.40;99.90
4922;DHT22;16625;53.624;10.106;2023-12-20T10:46:24;5.40;99.90
4922;DHT22;16625;53.624;10.106;2023-12-20T10:48:53;5.40;99.90
4922;DHT22;16625;53.624;10.106;2023-12-20T10:51:21;6.00;99.90
4922;DHT22;16625;53.624;10.106;2023-12-20T10:53:48;5.30;99.90
4922;DHT22;16625;53.624;10.106;2023-12-20T10:56:17;5.30;99.90
4922;DHT22;16625;53.624;10.106;2023-12-20T10:58:49;5.80;99.90
4922;DHT22;16625;53.624;10.106;2023-12-20T11:01:17;5.70;99.90
4922;DHT22;16625;53.624;10.106;2023-12-20T11:03:50;7.40;99.90
4922;DHT22;16625;53.624;10.106;2023-12-20T11:06:31;6.10;99.90
4922;DHT22;16625;53.624;10.106;2023-12-20T11:09:08;5.40;99.90
4922;DHT22;16625;53.624;10.106;2023-12-20T11:11:46;5.40;99.90
4922;DHT22;16625;53.624;10.106;2023-12-20T11:14:23;5.90;99.90
4922;DHT22;16625;53.624;10.106;2023-12-20T11:17:05;5.80;99.90
4922;DHT22;16625;53.624;10.106;2023-12-20T11:19:32;5.40;99.90
4922;DHT22;16625;53.624;10.106;2023-12-20T11:21:59;5.40;99.90
4922;DHT22;16625;53.624;10.106;2023-12-20T11:24:26;6.40;99.90
4922;DHT22;16625;53.624;10.106;2023-12-20T11:26:56;5.10;99.90
4922;DHT22;16625;53.624;10.106;2023-12-20T11:29:31;5.60;99.90
4922;DHT22;16625;53.624;10.106;2023-12-20T11:32:00;4.80;99.90
4922;DHT22;16625;53.624;10.106;2023-12-20T11:34:31;4.70;99.90
4922;DHT22;16625;53.624;10.106;2023-12-20T11:37:00;5.50;99.90
4922;DHT22;16625;53.624;10.106;2023-12-20T11:39:27;4.60;99.90
4922;DHT22;16625;53.624;10.106;2023-12-20T11:41:55;4.50;99.90
4922;DHT22;16625;53.624;10.106;2023-12-20T11:44:25;5.40;99.90
4922;DHT22;16625;53.624;10.106;2023-12-20T11:46:55;4.50;99.90
4922;DHT22;16625;53.624;10.106;2023-12-20T11:49:25;4.50;99.90
4922;DHT22;16625;53.624;10.106;2023-12-20T11:51:51;5.70;99.90
4922;DHT22;16625;53.624;10.106;2023-12-20T11:54:19;4.50;99.90
4922;DHT22;16625;53.624;10.106;2023-12-20T11:56:46;5.10;99.90
4922;DHT22;16625;53.624;10.106;2023-12-20T11:59:14;4.90;99.90
4922;DHT22;16625;53.624;10.106;2023-12-20T12:01:48;4.60;99.90
4922;DHT22;16625;53.624;10.106;2023-12-20T12:04:16;4.70;99.90
4922;DHT22;16625;53.624;10.106;2023-12-20T12:06:44;4.70;99.90
4922;DHT22;16625;53.624;10.106;2023-12-20T12:09:11;5.90;99.90
4922;DHT22;16625;53.624;10.106;2023-12-20T12:11:38;4.80;99.90
4922;DHT22;16625;53.624;10.106;2023-12-20T12:14:06;4.80;99.90
4922;DHT22;16625;53.624;10.106;2023-12-20T12:16:33;4.90;99.90
4922;DHT22;16625;53.624;10.106;2023-12-20T12:19:00;6.30;99.90
4922;DHT22;16625;53.624;10.106;2023-12-20T12:21:29;5.40;99.90
4922;DHT22;16625;53.624;10.106;2023-12-20T12:24:06;5.80;99.90
4922;DHT22;16625;53.624;10.106;2023-12-20T12:26:33;6.10;99.90
4922;DHT22;16625;53.624;10.106;2023-12-20T12:29:01;5.30;99.90
4922;DHT22;16625;53.624;10.106;2023-12-20T12:31:28;6.30;99.90
4922;DHT22;16625;53.624;10.106;2023-12-20T12:33:56;6.10;99.90
4922;DHT22;16625;53.624;10.106;2023-12-20T12:36:23;6.50;99.90
4922;DHT22;16625;53.624;10.106;2023-12-20T12:38:51;5.90;99.90
4922;DHT22;16625;53.624;10.106;2023-12-20T12:41:18;6.00;99.90
4922;DHT22;16625;53.624;10.106;2023-12-20T12:43:45;7.10;99.90
4922;DHT22;16625;53.624;10.106;2023-12-20T12:46:12;6.10;99.90
4922;DHT22;16625;53.624;10.106;2023-12-20T12:48:39;6.50;99.90
4922;DHT22;16625;53.624;10.106;2023-12-20T12:51:06;6.30;99.90
4922;DHT22;16625;53.624;10.106;2023-12-20T12:53:38;6.80;99.90
4922;DHT22;16625;53.624;10.106;2023-12-20T12:56:07;6.40;99.90
4922;DHT22;16625;53.624;10.106;2023-12-20T12:58:34;6.40;99.90
4922;DHT22;16625;53.624;10.106;2023-12-20T13:01:01;6.40;99.90
4922;DHT22;16625;53.624;10.106;2023-12-20T13:03:29;6.90;99.90
4922;DHT22;16625;53.624;10.106;2023-12-20T13:05:57;6.30;99.90
4922;DHT22;16625;53.624;10.106;2023-12-20T13:08:24;7.60;18.40
4922;DHT22;16625;53.624;10.106;2023-12-20T13:10:51;6.20;1.00
4922;DHT22;16625;53.624;10.106;2023-12-20T13:13:19;6.30;1.00
4922;DHT22;16625;53.624;10.106;2023-12-20T13:15:46;6.70;1.00
4922;DHT22;16625;53.624;10.106;2023-12-20T13:18:18;6.20;99.90
4922;DHT22;16625;53.624;10.106;2023-12-20T13:20:44;6.40;99.90
4922;DHT22;16625;53.624;10.106;2023-12-20T13:23:11;6.10;11.10
4922;DHT22;16625;53.624;10.106;2023-12-20T13:25:39;6.10;99.90
4922;DHT22;16625;53.624;10.106;2023-12-20T13:28:06;6.10;99.90
4922;DHT22;16625;53.624;10.106;2023-12-20T13:30:35;6.60;99.90
4922;DHT22;16625;53.624;10.106;2023-12-20T13:33:02;7.10;99.90
4922;DHT22;16625;53.624;10.106;2023-12-20T13:35:29;6.10;99.90
4922;DHT22;16625;53.624;10.106;2023-12-20T13:37:54;6.10;1.00
4922;DHT22;16625;53.624;10.106;2023-12-20T13:40:21;6.40;1.00
4922;DHT22;16625;53.624;10.106;2023-12-20T13:42:48;6.00;1.50
4922;DHT22;16625;53.624;10.106;2023-12-20T13:45:16;6.80;99.90
4922;DHT22;16625;53.624;10.106;2023-12-20T13:47:44;6.80;1.00
4922;DHT22;16625;53.624;10.106;2023-12-20T13:50:11;6.00;1.00
4922;DHT22;16625;53.624;10.106;2023-12-20T13:52:38;6.00;1.00
4922;DHT22;16625;53.624;10.106;2023-12-20T13:55:05;5.70;99.90
4922;DHT22;16625;53.624;10.106;2023-12-20T13:57:33;5.60;99.90
4922;DHT22;16625;53.624;10.106;2023-12-20T14:00:03;5.60;99.90
4922;DHT22;16625;53.624;10.106;2023-12-20T14:02:30;5.60;87.00
4922;DHT22;16625;53.624;10.106;2023-12-20T14:04:58;5.60;33.10
4922;DHT22;16625;53.624;10.106;2023-12-20T14:07:25;6.10;1.00
4922;DHT22;16625;53.624;10.106;2023-12-20T14:09:54;5.50;1.00
4922;DHT22;16625;53.624;10.106;2023-12-20T14:12:21;6.00;1.00
4922;DHT22;16625;53.624;10.106;2023-12-20T14:14:48;5.70;99.90
4922;DHT22;16625;53.624;10.106;2023-12-20T14:17:15;6.40;99.90
4922;DHT22;16625;53.624;10.106;2023-12-20T14:19:42;5.60;99.90
4922;DHT22;16625;53.624;10.106;2023-12-20T14:22:10;6.20;99.90
4922;DHT22;16625;53.624;10.106;2023-12-20T14:24:37;6.50;3.20
4922;DHT22;16625;53.624;10.106;2023-12-20T14:27:04;6.50;1.00
4922;DHT22;16625;53.624;10.106;2023-12-20T14:29:31;5.40;1.00
4922;DHT22;16625;53.624;10.106;2023-12-20T14:31:58;6.80;1.00
4922;DHT22;16625;53.624;10.106;2023-12-20T14:34:26;6.40;99.90
4922;DHT22;16625;53.624;10.106;2023-12-20T14:36:53;5.50;1.00
4922;DHT22;16625;53.624;10.106;2023-12-20T14:39:22;5.50;1.00
4922;DHT22;16625;53.624;10.106;2023-12-20T14:41:48;5.40;1.00
4922;DHT22;16625;53.624;10.106;2023-12-20T14:44:15;6.00;1.00
4922;DHT22;16625;53.624;10.106;2023-12-20T14:46:43;6.50;1.00
4922;DHT22;16625;53.624;10.106;2023-12-20T14:49:10;5.30;1.00
4922;DHT22;16625;53.624;10.106;2023-12-20T14:51:37;5.90;1.00
4922;DHT22;16625;53.624;10.106;2023-12-20T14:54:04;5.30;1.00
4922;DHT22;16625;53.624;10.106;2023-12-20T14:56:32;5.20;1.00
4922;DHT22;16625;53.624;10.106;2023-12-20T14:59:00;6.60;99.90
4922;DHT22;16625;53.624;10.106;2023-12-20T15:01:27;5.30;99.90
4922;DHT22;16625;53.624;10.106;2023-12-20T15:03:54;5.60;99.90
4922;DHT22;16625;53.624;10.106;2023-12-20T15:06:22;5.80;99.90
4922;DHT22;16625;53.624;10.106;2023-12-20T15:08:49;6.40;99.90
4922;DHT22;16625;53.624;10.106;2023-12-20T15:11:17;5.70;99.90
4922;DHT22;16625;53.624;10.106;2023-12-20T15:13:45;6.60;99.90
4922;DHT22;16625;53.624;10.106;2023-12-20T15:16:20;6.10;99.90
4922;DHT22;16625;53.624;10.106;2023-12-20T15:18:47;5.50;99.90
4922;DHT22;16625;53.624;10.106;2023-12-20T15:21:14;5.50;99.90
4922;DHT22;16625;53.624;10.106;2023-12-20T15:23:41;5.50;99.90
4922;DHT22;16625;53.624;10.106;2023-12-20T15:26:18;5.70;99.90
4922;DHT22;16625;53.624;10.106;2023-12-20T15:28:46;5.90;92.70
4922;DHT22;16625;53.624;10.106;2023-12-20T15:31:13;6.90;1.00
4922;DHT22;16625;53.624;10.106;2023-12-20T15:33:43;5.70;1.00
4922;DHT22;16625;53.624;10.106;2023-12-20T15:36:10;5.70;1.00
4922;DHT22;16625;53.624;10.106;2023-12-20T15:38:37;5.60;1.00
4922;DHT22;16625;53.624;10.106;2023-12-20T15:41:04;5.60;4.20
4922;DHT22;16625;53.624;10.106;2023-12-20T15:43:31;7.30;1.00
4922;DHT22;16625;53.624;10.106;2023-12-20T15:45:59;5.60;45.30
4922;DHT22;16625;53.624;10.106;2023-12-20T15:48:26;5.70;5.80
4922;DHT22;16625;53.624;10.106;2023-12-20T15:50:56;6.10;33.70